Portada
METAR-TAF:

METAR-TAF

Aeroports :

Nouakchott, Mauritània

latitud: 18-18-36N, longitud: 015-58-11W, altitud: 3 m

Observació

L'informe es va fer fa 42 minuts, a les 01:30 UTC
Vent 7 kt del Nord/Nord-Est
Temperatura 21°C
Humitat 49%
Pressió 1010 hPa
Visibilitat 10 km o més
sense núvols per sota de 1500 mi sense presència de cumulonimbus.

METAR: GQNO 190130Z 02007KT CAVOK 21/10 Q1010 NOSIG

Hora: 02:12 (02:12 UTC)

Pronòstic

L'informe es va fer fa 3 hores i 12 minuts, a les 23:00 UTC
Pronòstic vàlid del 19 a les 00 UTC al 20 a les 06 UTC
Vent 12 kt del Nord/Nord-Oest
Visibilitat: 8000 m
Temporalment
l' 19 a les 10 UTC al 19 a les 18 UTC
Vent 14 kt del Nord-Est

TAF: GQNO 182300Z 1900/2006 34012KT 8000 NSC TEMPO 1910/1918 05014KT

Observacions i pronòstics meteorològics de més de 4000 aeroports (METAR i TAF).

Les estacions disponibles són els punts grocs i vermells al mapa.

Posi el ratolí al punt desitjat per veure el nom de l'estació.

Feu clic per veure les observacions i els pronòstics meteorològics.

Per canviar el mapa: feu clic els botons verds amb una creu de color negre per apropar; al botó verd amb un guió per allunyar la imatge; o en les fletxes verdes per a mapes adjacents.


METAR-TAF: